METAR Reports

Area Airport Weather Conditions

KBDL - Windsor Locks, Connecticut, USA
Distance from station: NE 45mi, 72km
Updated: 12:51PM EDT, July 16, 2020
Partly cloudy
Partly cloudy
 Wind from E
Wind: E 9 mph , 15 km/h
Temperature: 81°F , 27°C
Dew Point: 54°F , 12°C
Humidity: 39%
Barometer: 30.29 inHg , 1025.7 hPa
Clouds: Partly cloudy
Visibility: 10 miles , 16 km
Cloud details: Few Clouds 7000 ft
Partly cloudy 25000 ft
2020/07/16 16:51 KBDL 161651Z 10008KT 10SM FEW070 SCT250 27/12 A3029 RMK AO2 SLP256 T02670117
KDXR - Danbury, Connecticut, USA
Distance from station: SSW 15mi, 24km
Updated: 12:53PM EDT, July 16, 2020
Few Clouds
Few Clouds
 Wind from varies
Wind: varies 7 mph , 11 km/h
Temperature: 73°F , 23°C
Dew Point: 59°F , 15°C
Humidity: 61%
Barometer: 30.32 inHg , 1026.8 hPa
Clouds: Few Clouds
Visibility: 10 miles , 16 km
Cloud details: Few Clouds 3700 ft
2020/07/16 16:53 KDXR 161653Z VRB06KT 10SM FEW037 23/15 A3032 RMK AO2 SLP264 T02330150
 
KOXC - Oxford/Waterbury, Connecticut, USA
Distance from station: ESE 16mi, 26km
Updated: 12:51PM EDT, July 16, 2020
Clear
Clear
 Wind from SE
Wind: SE 12 mph , 19 km/h
Temperature: 73°F , 23°C
Dew Point: 57°F , 14°C
Humidity: 57%
Barometer: 30.34 inHg , 1027.4 hPa
Clouds: Clear
Visibility: 10 miles , 16 km
2020/07/16 16:51 KOXC 161651Z 14010KT 10SM CLR 23/14 A3034 RMK AO2 SLP283 T02280144
KPOU - Poughkeepsie, New York, USA
Distance from station: W 25mi, 40km
Updated: 12:53PM EDT, July 16, 2020
Overcast
Overcast
 Wind from varies
Wind: varies 6 mph , 9 km/h
Temperature: 75°F , 24°C
Dew Point: 61°F , 16°C
Humidity: 61%
Barometer: 30.28 inHg , 1025.4 hPa
Clouds: Overcast
Visibility: 10 miles , 16 km
Cloud details: Overcast 3700 ft
2020/07/16 16:53 KPOU 161653Z VRB05KT 10SM OVC037 24/16 A3028 RMK AO2 SLP250 T02440161
 
KMMK - Meriden, Connecticut, USA
Distance from station: E 30mi, 48km
Updated: 12:53PM EDT, July 16, 2020
Clear
Clear
 Wind from SE
Wind: SE 9 mph , 15 km/h, Gust: 17 mph , 28 km/h
Temperature: 77°F , 25°C
Dew Point: 54°F , 12°C
Humidity: 44%
Barometer: 30.31 inHg , 1026.4 hPa
Clouds: Clear
Visibility: 10 miles , 16 km
2020/07/16 16:53 KMMK 161653Z AUTO 14008G15KT 10SM CLR 25/12 A3031 RMK AO2 SLP263 T02500122
KBDR - Bridgeport, Connecticut, USA
Distance from station: SSE 32mi, 51km
Updated: 12:52PM EDT, July 16, 2020
Clear
Clear
 Wind from E
Wind: E 12 mph , 19 km/h
Temperature: 73°F , 23°C
Dew Point: 63°F , 17°C
Humidity: 69%
Barometer: 30.32 inHg , 1026.8 hPa
Clouds: Clear
Visibility: 10 miles , 16 km
2020/07/16 16:52 KBDR 161652Z 09010KT 10SM CLR 23/17 A3032 RMK AO2 SLP267 T02330172
 
KHVN - New Haven/Tweed, Connecticut, USA
Distance from station: SE 35mi, 57km
Updated: 12:53PM EDT, July 16, 2020
Partly cloudy
Partly cloudy
 Wind from SSE
Wind: SSE 10 mph , 17 km/h
Temperature: 75°F , 24°C
Dew Point: 63°F , 17°C
Humidity: 65%
Barometer: 30.33 inHg , 1027.1 hPa
Clouds: Partly cloudy
Visibility: 10 miles , 16 km
Cloud details: Partly cloudy 25000 ft
2020/07/16 16:53 KHVN 161653Z 15009KT 10SM SCT250 24/17 A3033 RMK AO2 SLP269 T02440172
KSWF - Newburgh/Stewart, New York, USA
Distance from station: W 35mi, 57km
Updated: 12:45PM EDT, July 16, 2020
Overcast
Overcast
 Wind from varies
Wind: varies 6 mph , 9 km/h
Temperature: 73°F , 23°C
Dew Point: 63°F , 17°C
Humidity: 69%
Barometer: 30.30 inHg , 1026.1 hPa
Clouds: Overcast
Visibility: 10 miles , 16 km
Cloud details: Partly cloudy 3000 ft
Overcast 3700 ft
2020/07/16 16:45 KSWF 161645Z VRB05KT 10SM SCT030 OVC037 23/17 A3030
 
KHPN - White Plains, New York, USA
Distance from station: SSW 38mi, 62km
Updated: 12:56PM EDT, July 16, 2020
Mostly cloudy
Mostly cloudy
 Wind from SSE
Wind: SSE 10 mph , 17 km/h, Gust: 17 mph , 28 km/h
Temperature: 73°F , 23°C
Dew Point: 59°F , 15°C
Humidity: 61%
Barometer: 30.31 inHg , 1026.4 hPa
Clouds: Mostly cloudy
Visibility: 10 miles , 16 km
Cloud details: Mostly cloudy 3500 ft
2020/07/16 16:56 KHPN 161656Z 15009G15KT 10SM BKN035 23/15 A3031 RMK AO2 SLP260 T02330150 $
KHFD - Hartford/Brainar, Connecticut, USA
Distance from station: ENE 41mi, 65km
Updated: 12:53PM EDT, July 16, 2020
Partly cloudy
Partly cloudy
 Wind from S
Wind: S 9 mph , 15 km/h
Temperature: 79°F , 26°C
Dew Point: 57°F , 14°C
Humidity: 48%
Barometer: 30.30 inHg , 1026.1 hPa
Clouds: Partly cloudy
Visibility: 10 miles , 16 km
Cloud details: Partly cloudy 7500 ft
2020/07/16 16:53 KHFD 161653Z 17008KT 130V190 10SM SCT075 26/14 A3030 RMK AO2 SLP260 T02560139